sensor_id;sensor_type;location;lat;lon;timestamp;P1;durP1;ratioP1;P2;durP2;ratioP2
65393;SDS011;52002;49.760;6.512;2024-02-15T00:01:21;5.40;;;2.20;;
65393;SDS011;52002;49.760;6.512;2024-02-15T00:03:46;5.10;;;2.30;;
65393;SDS011;52002;49.760;6.512;2024-02-15T00:06:12;6.00;;;2.10;;
65393;SDS011;52002;49.760;6.512;2024-02-15T00:08:37;8.90;;;2.20;;
65393;SDS011;52002;49.760;6.512;2024-02-15T00:11:03;7.50;;;2.10;;
65393;SDS011;52002;49.760;6.512;2024-02-15T00:13:28;5.40;;;2.00;;
65393;SDS011;52002;49.760;6.512;2024-02-15T00:15:54;3.90;;;1.70;;
65393;SDS011;52002;49.760;6.512;2024-02-15T00:18:20;6.60;;;1.80;;
65393;SDS011;52002;49.760;6.512;2024-02-15T00:20:46;9.40;;;2.30;;
65393;SDS011;52002;49.760;6.512;2024-02-15T00:23:11;5.00;;;2.10;;
65393;SDS011;52002;49.760;6.512;2024-02-15T00:25:37;14.20;;;4.60;;
65393;SDS011;52002;49.760;6.512;2024-02-15T00:28:02;5.00;;;1.80;;
65393;SDS011;52002;49.760;6.512;2024-02-15T00:30:28;4.70;;;2.10;;
65393;SDS011;52002;49.760;6.512;2024-02-15T00:32:54;5.20;;;2.40;;
65393;SDS011;52002;49.760;6.512;2024-02-15T00:35:20;6.90;;;2.60;;
65393;SDS011;52002;49.760;6.512;2024-02-15T00:37:45;7.30;;;2.00;;
65393;SDS011;52002;49.760;6.512;2024-02-15T00:40:11;10.90;;;2.40;;
65393;SDS011;52002;49.760;6.512;2024-02-15T00:42:36;6.70;;;2.10;;
65393;SDS011;52002;49.760;6.512;2024-02-15T00:45:05;6.40;;;2.10;;
65393;SDS011;52002;49.760;6.512;2024-02-15T00:47:33;3.80;;;1.80;;
65393;SDS011;52002;49.760;6.512;2024-02-15T00:49:58;4.20;;;2.40;;
65393;SDS011;52002;49.760;6.512;2024-02-15T00:52:23;6.60;;;2.30;;
65393;SDS011;52002;49.760;6.512;2024-02-15T00:54:50;6.60;;;2.80;;
65393;SDS011;52002;49.760;6.512;2024-02-15T00:57:16;6.60;;;2.60;;
65393;SDS011;52002;49.760;6.512;2024-02-15T00:59:41;4.00;;;1.70;;
65393;SDS011;52002;49.760;6.512;2024-02-15T01:02:06;3.20;;;1.80;;
65393;SDS011;52002;49.760;6.512;2024-02-15T01:04:32;7.80;;;2.00;;
65393;SDS011;52002;49.760;6.512;2024-02-15T01:06:57;7.10;;;1.90;;
65393;SDS011;52002;49.760;6.512;2024-02-15T01:09:22;5.50;;;1.70;;
65393;SDS011;52002;49.760;6.512;2024-02-15T01:11:48;7.30;;;1.80;;
65393;SDS011;52002;49.760;6.512;2024-02-15T01:14:13;7.70;;;1.90;;
65393;SDS011;52002;49.760;6.512;2024-02-15T01:16:40;7.60;;;2.30;;
65393;SDS011;52002;49.760;6.512;2024-02-15T01:19:06;6.50;;;1.80;;
65393;SDS011;52002;49.760;6.512;2024-02-15T01:21:32;6.70;;;1.70;;
65393;SDS011;52002;49.760;6.512;2024-02-15T01:23:58;6.00;;;1.80;;
65393;SDS011;52002;49.760;6.512;2024-02-15T01:26:25;3.20;;;1.60;;
65393;SDS011;52002;49.760;6.512;2024-02-15T01:28:52;6.50;;;1.70;;
65393;SDS011;52002;49.760;6.512;2024-02-15T01:31:17;5.00;;;1.80;;
65393;SDS011;52002;49.760;6.512;2024-02-15T01:33:43;2.30;;;1.40;;
65393;SDS011;52002;49.760;6.512;2024-02-15T01:36:15;7.10;;;2.40;;
65393;SDS011;52002;49.760;6.512;2024-02-15T01:38:41;11.40;;;2.30;;
65393;SDS011;52002;49.760;6.512;2024-02-15T01:41:07;9.20;;;2.60;;
65393;SDS011;52002;49.760;6.512;2024-02-15T01:43:33;4.80;;;1.70;;
65393;SDS011;52002;49.760;6.512;2024-02-15T01:45:59;8.50;;;1.80;;
65393;SDS011;52002;49.760;6.512;2024-02-15T01:48:29;5.00;;;2.20;;
65393;SDS011;52002;49.760;6.512;2024-02-15T01:50:55;8.30;;;2.00;;
65393;SDS011;52002;49.760;6.512;2024-02-15T01:53:23;8.90;;;2.00;;
65393;SDS011;52002;49.760;6.512;2024-02-15T01:55:49;4.40;;;2.20;;
65393;SDS011;52002;49.760;6.512;2024-02-15T01:58:15;6.40;;;1.80;;
65393;SDS011;52002;49.760;6.512;2024-02-15T02:00:40;7.80;;;2.20;;
65393;SDS011;52002;49.760;6.512;2024-02-15T02:03:06;8.30;;;1.90;;
65393;SDS011;52002;49.760;6.512;2024-02-15T02:05:31;5.40;;;3.10;;
65393;SDS011;52002;49.760;6.512;2024-02-15T02:07:57;4.50;;;1.90;;
65393;SDS011;52002;49.760;6.512;2024-02-15T02:10:34;3.80;;;1.70;;
65393;SDS011;52002;49.760;6.512;2024-02-15T02:13:03;4.70;;;1.90;;
65393;SDS011;52002;49.760;6.512;2024-02-15T02:15:34;6.00;;;2.10;;
65393;SDS011;52002;49.760;6.512;2024-02-15T02:18:00;5.70;;;1.80;;
65393;SDS011;52002;49.760;6.512;2024-02-15T02:20:26;17.60;;;2.90;;
65393;SDS011;52002;49.760;6.512;2024-02-15T02:22:53;3.40;;;1.80;;
65393;SDS011;52002;49.760;6.512;2024-02-15T02:25:24;2.80;;;1.70;;
65393;SDS011;52002;49.760;6.512;2024-02-15T02:27:53;5.70;;;1.90;;
65393;SDS011;52002;49.760;6.512;2024-02-15T02:30:21;5.40;;;2.00;;
65393;SDS011;52002;49.760;6.512;2024-02-15T02:32:47;5.00;;;1.70;;
65393;SDS011;52002;49.760;6.512;2024-02-15T02:35:13;6.10;;;1.70;;
65393;SDS011;52002;49.760;6.512;2024-02-15T02:37:41;6.40;;;1.90;;
65393;SDS011;52002;49.760;6.512;2024-02-15T02:40:07;8.70;;;3.20;;
65393;SDS011;52002;49.760;6.512;2024-02-15T02:42:56;11.10;;;1.60;;
65393;SDS011;52002;49.760;6.512;2024-02-15T02:45:24;3.20;;;1.50;;
65393;SDS011;52002;49.760;6.512;2024-02-15T02:47:50;7.60;;;1.80;;
65393;SDS011;52002;49.760;6.512;2024-02-15T02:50:16;7.50;;;1.80;;
65393;SDS011;52002;49.760;6.512;2024-02-15T02:52:42;7.90;;;2.00;;
65393;SDS011;52002;49.760;6.512;2024-02-15T02:55:08;5.90;;;1.80;;
65393;SDS011;52002;49.760;6.512;2024-02-15T02:57:34;6.20;;;2.00;;
65393;SDS011;52002;49.760;6.512;2024-02-15T03:00:05;5.10;;;1.80;;
65393;SDS011;52002;49.760;6.512;2024-02-15T03:02:40;3.80;;;1.40;;
65393;SDS011;52002;49.760;6.512;2024-02-15T03:05:06;11.30;;;2.30;;
65393;SDS011;52002;49.760;6.512;2024-02-15T03:07:33;6.90;;;1.80;;
65393;SDS011;52002;49.760;6.512;2024-02-15T03:10:00;10.80;;;1.90;;
65393;SDS011;52002;49.760;6.512;2024-02-15T03:12:26;6.60;;;1.80;;
65393;SDS011;52002;49.760;6.512;2024-02-15T03:14:52;8.60;;;1.90;;
65393;SDS011;52002;49.760;6.512;2024-02-15T03:17:17;9.10;;;1.60;;
65393;SDS011;52002;49.760;6.512;2024-02-15T03:19:43;3.40;;;1.50;;
65393;SDS011;52002;49.760;6.512;2024-02-15T03:22:08;5.60;;;1.60;;
65393;SDS011;52002;49.760;6.512;2024-02-15T03:24:33;5.20;;;1.60;;
65393;SDS011;52002;49.760;6.512;2024-02-15T03:26:59;3.20;;;1.60;;
65393;SDS011;52002;49.760;6.512;2024-02-15T03:29:25;6.30;;;1.80;;
65393;SDS011;52002;49.760;6.512;2024-02-15T03:31:50;5.00;;;1.40;;
65393;SDS011;52002;49.760;6.512;2024-02-15T03:34:18;4.30;;;1.70;;
65393;SDS011;52002;49.760;6.512;2024-02-15T03:36:46;10.60;;;1.70;;
65393;SDS011;52002;49.760;6.512;2024-02-15T03:39:19;7.50;;;1.90;;
65393;SDS011;52002;49.760;6.512;2024-02-15T03:41:45;6.30;;;2.00;;
65393;SDS011;52002;49.760;6.512;2024-02-15T03:44:13;3.80;;;1.80;;
65393;SDS011;52002;49.760;6.512;2024-02-15T03:46:39;7.10;;;1.80;;
65393;SDS011;52002;49.760;6.512;2024-02-15T03:49:05;5.40;;;1.70;;
65393;SDS011;52002;49.760;6.512;2024-02-15T03:51:31;6.30;;;1.90;;
65393;SDS011;52002;49.760;6.512;2024-02-15T03:53:57;4.50;;;1.90;;
65393;SDS011;52002;49.760;6.512;2024-02-15T03:56:23;4.00;;;1.80;;
65393;SDS011;52002;49.760;6.512;2024-02-15T03:58:48;8.10;;;1.80;;
65393;SDS011;52002;49.760;6.512;2024-02-15T04:01:15;6.30;;;1.60;;
65393;SDS011;52002;49.760;6.512;2024-02-15T04:03:41;7.10;;;1.70;;
65393;SDS011;52002;49.760;6.512;2024-02-15T04:06:07;2.90;;;1.30;;
65393;SDS011;52002;49.760;6.512;2024-02-15T04:08:32;4.10;;;1.50;;
65393;SDS011;52002;49.760;6.512;2024-02-15T04:10:58;7.70;;;1.70;;
65393;SDS011;52002;49.760;6.512;2024-02-15T04:13:24;4.70;;;2.00;;
65393;SDS011;52002;49.760;6.512;2024-02-15T04:15:49;5.40;;;1.30;;
65393;SDS011;52002;49.760;6.512;2024-02-15T04:18:17;7.10;;;1.80;;
65393;SDS011;52002;49.760;6.512;2024-02-15T04:20:43;13.40;;;2.10;;
65393;SDS011;52002;49.760;6.512;2024-02-15T04:23:11;5.40;;;1.80;;
65393;SDS011;52002;49.760;6.512;2024-02-15T04:25:37;12.00;;;1.70;;
65393;SDS011;52002;49.760;6.512;2024-02-15T04:28:02;3.60;;;1.60;;
65393;SDS011;52002;49.760;6.512;2024-02-15T04:30:29;5.80;;;1.60;;
65393;SDS011;52002;49.760;6.512;2024-02-15T04:32:55;8.10;;;1.90;;
65393;SDS011;52002;49.760;6.512;2024-02-15T04:35:21;4.00;;;1.30;;
65393;SDS011;52002;49.760;6.512;2024-02-15T04:37:47;5.10;;;1.40;;
65393;SDS011;52002;49.760;6.512;2024-02-15T04:40:14;3.80;;;1.30;;
65393;SDS011;52002;49.760;6.512;2024-02-15T04:42:40;2.40;;;1.20;;
65393;SDS011;52002;49.760;6.512;2024-02-15T04:45:09;5.10;;;1.60;;
65393;SDS011;52002;49.760;6.512;2024-02-15T04:47:37;5.60;;;1.60;;
65393;SDS011;52002;49.760;6.512;2024-02-15T04:50:03;4.50;;;1.40;;
65393;SDS011;52002;49.760;6.512;2024-02-15T04:52:31;8.40;;;1.60;;
65393;SDS011;52002;49.760;6.512;2024-02-15T04:54:56;2.40;;;1.30;;
65393;SDS011;52002;49.760;6.512;2024-02-15T04:57:24;6.90;;;1.70;;
65393;SDS011;52002;49.760;6.512;2024-02-15T04:59:53;7.50;;;2.20;;
65393;SDS011;52002;49.760;6.512;2024-02-15T05:02:19;5.30;;;1.90;;
65393;SDS011;52002;49.760;6.512;2024-02-15T05:04:45;3.80;;;1.60;;
65393;SDS011;52002;49.760;6.512;2024-02-15T05:07:11;5.80;;;1.50;;
65393;SDS011;52002;49.760;6.512;2024-02-15T05:09:36;4.20;;;1.30;;
65393;SDS011;52002;49.760;6.512;2024-02-15T05:12:02;6.10;;;1.40;;
65393;SDS011;52002;49.760;6.512;2024-02-15T05:14:28;2.80;;;1.10;;
65393;SDS011;52002;49.760;6.512;2024-02-15T05:16:54;4.00;;;1.50;;
65393;SDS011;52002;49.760;6.512;2024-02-15T05:19:19;5.10;;;1.40;;
65393;SDS011;52002;49.760;6.512;2024-02-15T05:21:45;8.00;;;1.70;;
65393;SDS011;52002;49.760;6.512;2024-02-15T05:24:12;7.60;;;1.60;;
65393;SDS011;52002;49.760;6.512;2024-02-15T05:26:41;5.10;;;1.30;;
65393;SDS011;52002;49.760;6.512;2024-02-15T05:29:09;3.20;;;1.50;;
65393;SDS011;52002;49.760;6.512;2024-02-15T05:31:36;6.10;;;1.70;;
65393;SDS011;52002;49.760;6.512;2024-02-15T05:34:03;2.40;;;1.40;;
65393;SDS011;52002;49.760;6.512;2024-02-15T05:36:29;5.30;;;1.60;;
65393;SDS011;52002;49.760;6.512;2024-02-15T05:38:55;6.10;;;1.60;;
65393;SDS011;52002;49.760;6.512;2024-02-15T05:41:22;10.70;;;1.60;;
65393;SDS011;52002;49.760;6.512;2024-02-15T05:43:48;2.40;;;1.40;;
65393;SDS011;52002;49.760;6.512;2024-02-15T05:46:13;5.10;;;1.40;;
65393;SDS011;52002;49.760;6.512;2024-02-15T05:48:39;6.10;;;1.50;;
65393;SDS011;52002;49.760;6.512;2024-02-15T05:51:08;5.70;;;1.70;;
65393;SDS011;52002;49.760;6.512;2024-02-15T05:53:34;4.00;;;1.60;;
65393;SDS011;52002;49.760;6.512;2024-02-15T05:56:04;4.70;;;1.90;;
65393;SDS011;52002;49.760;6.512;2024-02-15T05:58:32;5.90;;;1.30;;
65393;SDS011;52002;49.760;6.512;2024-02-15T06:01:01;5.70;;;1.60;;
65393;SDS011;52002;49.760;6.512;2024-02-15T06:03:28;4.50;;;1.30;;
65393;SDS011;52002;49.760;6.512;2024-02-15T06:05:54;4.00;;;1.70;;
65393;SDS011;52002;49.760;6.512;2024-02-15T06:08:27;5.50;;;2.10;;
65393;SDS011;52002;49.760;6.512;2024-02-15T06:10:55;3.70;;;1.60;;
65393;SDS011;52002;49.760;6.512;2024-02-15T06:13:21;7.60;;;1.60;;
65393;SDS011;52002;49.760;6.512;2024-02-15T06:15:48;5.00;;;1.60;;
65393;SDS011;52002;49.760;6.512;2024-02-15T06:18:27;4.30;;;2.20;;
65393;SDS011;52002;49.760;6.512;2024-02-15T06:20:54;6.80;;;2.30;;
65393;SDS011;52002;49.760;6.512;2024-02-15T06:23:24;5.10;;;2.20;;
65393;SDS011;52002;49.760;6.512;2024-02-15T06:25:52;3.50;;;2.30;;
65393;SDS011;52002;49.760;6.512;2024-02-15T06:28:18;4.40;;;1.80;;
65393;SDS011;52002;49.760;6.512;2024-02-15T06:31:04;7.00;;;2.10;;
65393;SDS011;52002;49.760;6.512;2024-02-15T06:33:49;7.80;;;2.00;;
65393;SDS011;52002;49.760;6.512;2024-02-15T06:36:33;4.30;;;1.90;;
65393;SDS011;52002;49.760;6.512;2024-02-15T06:39:17;5.40;;;2.10;;
65393;SDS011;52002;49.760;6.512;2024-02-15T06:42:02;7.50;;;2.10;;
65393;SDS011;52002;49.760;6.512;2024-02-15T06:44:28;3.80;;;1.80;;
65393;SDS011;52002;49.760;6.512;2024-02-15T06:46:53;5.00;;;2.10;;
65393;SDS011;52002;49.760;6.512;2024-02-15T06:49:19;8.70;;;2.40;;
65393;SDS011;52002;49.760;6.512;2024-02-15T06:51:47;7.70;;;2.40;;
65393;SDS011;52002;49.760;6.512;2024-02-15T06:54:13;8.90;;;3.40;;
65393;SDS011;52002;49.760;6.512;2024-02-15T06:56:38;7.40;;;2.70;;
65393;SDS011;52002;49.760;6.512;2024-02-15T06:59:04;5.20;;;2.50;;
65393;SDS011;52002;49.760;6.512;2024-02-15T07:01:30;7.80;;;2.70;;
65393;SDS011;52002;49.760;6.512;2024-02-15T07:03:59;7.60;;;2.70;;
65393;SDS011;52002;49.760;6.512;2024-02-15T07:06:25;4.20;;;2.60;;
65393;SDS011;52002;49.760;6.512;2024-02-15T07:08:52;7.80;;;2.70;;
65393;SDS011;52002;49.760;6.512;2024-02-15T07:11:20;7.30;;;3.10;;
65393;SDS011;52002;49.760;6.512;2024-02-15T07:13:46;5.90;;;2.80;;
65393;SDS011;52002;49.760;6.512;2024-02-15T07:16:12;8.60;;;3.50;;
65393;SDS011;52002;49.760;6.512;2024-02-15T07:18:38;9.30;;;3.60;;
65393;SDS011;52002;49.760;6.512;2024-02-15T07:21:04;11.10;;;3.40;;
65393;SDS011;52002;49.760;6.512;2024-02-15T07:23:36;11.40;;;2.90;;
65393;SDS011;52002;49.760;6.512;2024-02-15T07:26:01;5.70;;;3.00;;
65393;SDS011;52002;49.760;6.512;2024-02-15T07:28:28;8.90;;;3.50;;
65393;SDS011;52002;49.760;6.512;2024-02-15T07:30:56;11.00;;;3.50;;
65393;SDS011;52002;49.760;6.512;2024-02-15T07:33:22;7.70;;;3.50;;
65393;SDS011;52002;49.760;6.512;2024-02-15T07:35:48;10.40;;;3.10;;
65393;SDS011;52002;49.760;6.512;2024-02-15T07:38:18;10.20;;;4.00;;
65393;SDS011;52002;49.760;6.512;2024-02-15T07:40:44;14.10;;;3.10;;
65393;SDS011;52002;49.760;6.512;2024-02-15T07:43:10;8.80;;;3.30;;
65393;SDS011;52002;49.760;6.512;2024-02-15T07:45:35;9.20;;;2.50;;
65393;SDS011;52002;49.760;6.512;2024-02-15T07:48:05;8.50;;;2.60;;
65393;SDS011;52002;49.760;6.512;2024-02-15T07:50:31;7.60;;;2.70;;
65393;SDS011;52002;49.760;6.512;2024-02-15T07:52:57;5.30;;;3.20;;
65393;SDS011;52002;49.760;6.512;2024-02-15T07:55:23;7.80;;;2.60;;
65393;SDS011;52002;49.760;6.512;2024-02-15T07:57:50;6.80;;;2.40;;
65393;SDS011;52002;49.760;6.512;2024-02-15T08:00:16;10.90;;;2.50;;
65393;SDS011;52002;49.760;6.512;2024-02-15T08:02:42;10.00;;;2.50;;
65393;SDS011;52002;49.760;6.512;2024-02-15T08:05:11;9.80;;;3.10;;
65393;SDS011;52002;49.760;6.512;2024-02-15T08:07:41;8.30;;;3.30;;
65393;SDS011;52002;49.760;6.512;2024-02-15T08:10:09;8.20;;;3.10;;
65393;SDS011;52002;49.760;6.512;2024-02-15T08:12:41;10.80;;;3.10;;
65393;SDS011;52002;49.760;6.512;2024-02-15T08:15:08;9.70;;;5.30;;
65393;SDS011;52002;49.760;6.512;2024-02-15T08:17:40;11.20;;;4.30;;
65393;SDS011;52002;49.760;6.512;2024-02-15T08:20:12;8.40;;;4.10;;
65393;SDS011;52002;49.760;6.512;2024-02-15T08:22:39;8.90;;;3.80;;
65393;SDS011;52002;49.760;6.512;2024-02-15T08:25:06;7.10;;;3.00;;
65393;SDS011;52002;49.760;6.512;2024-02-15T08:27:43;8.50;;;2.70;;
65393;SDS011;52002;49.760;6.512;2024-02-15T08:30:12;6.30;;;2.20;;
65393;SDS011;52002;49.760;6.512;2024-02-15T08:32:42;6.00;;;2.90;;
65393;SDS011;52002;49.760;6.512;2024-02-15T08:35:09;15.10;;;3.00;;
65393;SDS011;52002;49.760;6.512;2024-02-15T08:37:35;6.00;;;2.50;;
65393;SDS011;52002;49.760;6.512;2024-02-15T08:40:03;7.10;;;2.70;;
65393;SDS011;52002;49.760;6.512;2024-02-15T08:42:29;7.30;;;3.00;;
65393;SDS011;52002;49.760;6.512;2024-02-15T08:44:55;4.10;;;2.40;;
65393;SDS011;52002;49.760;6.512;2024-02-15T08:47:21;8.50;;;2.80;;
65393;SDS011;52002;49.760;6.512;2024-02-15T08:49:47;8.20;;;2.80;;
65393;SDS011;52002;49.760;6.512;2024-02-15T08:52:12;10.00;;;2.50;;
65393;SDS011;52002;49.760;6.512;2024-02-15T08:54:38;5.20;;;2.40;;
65393;SDS011;52002;49.760;6.512;2024-02-15T08:57:04;6.50;;;1.90;;
65393;SDS011;52002;49.760;6.512;2024-02-15T08:59:30;5.80;;;2.40;;
65393;SDS011;52002;49.760;6.512;2024-02-15T09:01:56;4.70;;;1.90;;
65393;SDS011;52002;49.760;6.512;2024-02-15T09:04:22;3.40;;;2.00;;
65393;SDS011;52002;49.760;6.512;2024-02-15T09:06:50;3.70;;;2.30;;
65393;SDS011;52002;49.760;6.512;2024-02-15T09:09:16;6.10;;;2.00;;
65393;SDS011;52002;49.760;6.512;2024-02-15T09:11:41;5.40;;;1.80;;
65393;SDS011;52002;49.760;6.512;2024-02-15T09:14:07;5.20;;;2.30;;
65393;SDS011;52002;49.760;6.512;2024-02-15T09:16:35;4.80;;;2.20;;
65393;SDS011;52002;49.760;6.512;2024-02-15T09:19:01;4.60;;;2.30;;
65393;SDS011;52002;49.760;6.512;2024-02-15T09:21:27;8.60;;;2.30;;
65393;SDS011;52002;49.760;6.512;2024-02-15T09:23:54;3.80;;;2.00;;
65393;SDS011;52002;49.760;6.512;2024-02-15T09:26:19;5.60;;;2.10;;
65393;SDS011;52002;49.760;6.512;2024-02-15T09:28:45;6.30;;;2.20;;
65393;SDS011;52002;49.760;6.512;2024-02-15T09:31:13;6.20;;;2.00;;
65393;SDS011;52002;49.760;6.512;2024-02-15T09:33:39;3.40;;;1.70;;
65393;SDS011;52002;49.760;6.512;2024-02-15T09:36:05;4.80;;;1.60;;
65393;SDS011;52002;49.760;6.512;2024-02-15T09:38:31;4.50;;;1.70;;
65393;SDS011;52002;49.760;6.512;2024-02-15T09:40:56;9.70;;;2.00;;
65393;SDS011;52002;49.760;6.512;2024-02-15T09:43:21;7.50;;;2.10;;
65393;SDS011;52002;49.760;6.512;2024-02-15T09:45:51;5.30;;;2.20;;
65393;SDS011;52002;49.760;6.512;2024-02-15T09:48:18;4.50;;;2.00;;
65393;SDS011;52002;49.760;6.512;2024-02-15T09:50:44;4.50;;;1.90;;
65393;SDS011;52002;49.760;6.512;2024-02-15T09:53:11;6.20;;;1.90;;
65393;SDS011;52002;49.760;6.512;2024-02-15T09:55:39;3.70;;;1.70;;
65393;SDS011;52002;49.760;6.512;2024-02-15T09:58:07;5.40;;;1.90;;
65393;SDS011;52002;49.760;6.512;2024-02-15T10:00:34;4.00;;;1.70;;
65393;SDS011;52002;49.760;6.512;2024-02-15T10:03:00;5.70;;;1.90;;
65393;SDS011;52002;49.760;6.512;2024-02-15T10:05:30;5.00;;;1.80;;
65393;SDS011;52002;49.760;6.512;2024-02-15T10:07:56;7.60;;;2.10;;
65393;SDS011;52002;49.760;6.512;2024-02-15T10:10:22;8.10;;;1.90;;
65393;SDS011;52002;49.760;6.512;2024-02-15T10:12:50;8.00;;;1.70;;
65393;SDS011;52002;49.760;6.512;2024-02-15T10:15:35;8.90;;;1.90;;
65393;SDS011;52002;49.760;6.512;2024-02-15T10:18:03;3.20;;;1.70;;
65393;SDS011;52002;49.760;6.512;2024-02-15T10:20:31;6.00;;;1.80;;
65393;SDS011;52002;49.760;6.512;2024-02-15T10:25:26;4.20;;;1.70;;
65393;SDS011;52002;49.760;6.512;2024-02-15T10:28:02;6.40;;;1.70;;
65393;SDS011;52002;49.760;6.512;2024-02-15T10:30:28;5.50;;;1.80;;
65393;SDS011;52002;49.760;6.512;2024-02-15T10:32:54;6.80;;;1.80;;
65393;SDS011;52002;49.760;6.512;2024-02-15T10:35:22;5.10;;;1.80;;
65393;SDS011;52002;49.760;6.512;2024-02-15T10:37:48;4.00;;;1.50;;
65393;SDS011;52002;49.760;6.512;2024-02-15T10:40:18;4.00;;;1.70;;
65393;SDS011;52002;49.760;6.512;2024-02-15T10:42:45;4.70;;;1.60;;
65393;SDS011;52002;49.760;6.512;2024-02-15T10:45:12;4.60;;;2.20;;
65393;SDS011;52002;49.760;6.512;2024-02-15T10:47:43;3.70;;;1.50;;
65393;SDS011;52002;49.760;6.512;2024-02-15T10:50:10;5.50;;;1.50;;
65393;SDS011;52002;49.760;6.512;2024-02-15T10:52:36;4.50;;;2.00;;
65393;SDS011;52002;49.760;6.512;2024-02-15T10:55:10;4.50;;;1.60;;
65393;SDS011;52002;49.760;6.512;2024-02-15T10:57:39;10.10;;;2.80;;
65393;SDS011;52002;49.760;6.512;2024-02-15T11:00:09;16.30;;;8.10;;
65393;SDS011;52002;49.760;6.512;2024-02-15T11:02:54;11.00;;;2.90;;
65393;SDS011;52002;49.760;6.512;2024-02-15T11:05:35;5.90;;;2.20;;
65393;SDS011;52002;49.760;6.512;2024-02-15T11:10:31;6.30;;;1.70;;
65393;SDS011;52002;49.760;6.512;2024-02-15T11:12:57;5.40;;;1.70;;
65393;SDS011;52002;49.760;6.512;2024-02-15T11:15:40;5.30;;;1.60;;
65393;SDS011;52002;49.760;6.512;2024-02-15T11:21:52;4.50;;;2.20;;
65393;SDS011;52002;49.760;6.512;2024-02-15T11:24:45;3.20;;;1.50;;
65393;SDS011;52002;49.760;6.512;2024-02-15T11:27:11;5.50;;;1.70;;
65393;SDS011;52002;49.760;6.512;2024-02-15T11:35:05;1.90;;;1.30;;
65393;SDS011;52002;49.760;6.512;2024-02-15T11:42:56;4.00;;;1.50;;
65393;SDS011;52002;49.760;6.512;2024-02-15T11:45:24;1.70;;;1.30;;
65393;SDS011;52002;49.760;6.512;2024-02-15T11:47:51;2.80;;;1.80;;
65393;SDS011;52002;49.760;6.512;2024-02-15T11:50:19;3.00;;;1.50;;
65393;SDS011;52002;49.760;6.512;2024-02-15T11:52:45;5.40;;;1.50;;
65393;SDS011;52002;49.760;6.512;2024-02-15T11:55:14;4.90;;;1.60;;
65393;SDS011;52002;49.760;6.512;2024-02-15T11:57:44;5.10;;;1.70;;
65393;SDS011;52002;49.760;6.512;2024-02-15T12:00:42;4.20;;;1.50;;
65393;SDS011;52002;49.760;6.512;2024-02-15T12:03:26;2.30;;;1.10;;
65393;SDS011;52002;49.760;6.512;2024-02-15T12:06:11;4.50;;;1.70;;
65393;SDS011;52002;49.760;6.512;2024-02-15T12:08:55;5.10;;;1.70;;
65393;SDS011;52002;49.760;6.512;2024-02-15T12:11:40;6.90;;;1.60;;
65393;SDS011;52002;49.760;6.512;2024-02-15T12:14:24;3.20;;;1.10;;
65393;SDS011;52002;49.760;6.512;2024-02-15T12:17:10;6.10;;;1.70;;
65393;SDS011;52002;49.760;6.512;2024-02-15T12:19:56;4.20;;;1.60;;
65393;SDS011;52002;49.760;6.512;2024-02-15T12:22:25;4.90;;;1.40;;
65393;SDS011;52002;49.760;6.512;2024-02-15T12:25:00;2.30;;;1.40;;
65393;SDS011;52002;49.760;6.512;2024-02-15T12:27:37;4.90;;;1.30;;
65393;SDS011;52002;49.760;6.512;2024-02-15T12:30:04;8.10;;;2.10;;
65393;SDS011;52002;49.760;6.512;2024-02-15T12:32:32;4.50;;;1.70;;
65393;SDS011;52002;49.760;6.512;2024-02-15T12:35:10;2.20;;;1.10;;
65393;SDS011;52002;49.760;6.512;2024-02-15T12:40:31;2.50;;;1.40;;
65393;SDS011;52002;49.760;6.512;2024-02-15T12:42:58;4.00;;;1.20;;
65393;SDS011;52002;49.760;6.512;2024-02-15T12:45:25;4.40;;;1.20;;
65393;SDS011;52002;49.760;6.512;2024-02-15T12:47:53;3.10;;;1.30;;
65393;SDS011;52002;49.760;6.512;2024-02-15T12:50:23;7.90;;;1.50;;
65393;SDS011;52002;49.760;6.512;2024-02-15T12:52:53;3.40;;;1.10;;
65393;SDS011;52002;49.760;6.512;2024-02-15T12:55:21;3.90;;;1.20;;
65393;SDS011;52002;49.760;6.512;2024-02-15T12:57:49;2.70;;;1.00;;
65393;SDS011;52002;49.760;6.512;2024-02-15T13:02:49;3.80;;;1.40;;
65393;SDS011;52002;49.760;6.512;2024-02-15T13:05:19;4.80;;;1.40;;
65393;SDS011;52002;49.760;6.512;2024-02-15T13:07:46;2.70;;;1.30;;
65393;SDS011;52002;49.760;6.512;2024-02-15T13:10:13;3.80;;;1.20;;
65393;SDS011;52002;49.760;6.512;2024-02-15T13:12:46;3.40;;;1.50;;
65393;SDS011;52002;49.760;6.512;2024-02-15T13:15:15;7.80;;;1.10;;
65393;SDS011;52002;49.760;6.512;2024-02-15T13:17:45;3.40;;;1.20;;
65393;SDS011;52002;49.760;6.512;2024-02-15T13:20:14;3.00;;;1.30;;
65393;SDS011;52002;49.760;6.512;2024-02-15T13:22:41;3.80;;;1.10;;
65393;SDS011;52002;49.760;6.512;2024-02-15T13:25:08;3.30;;;1.10;;
65393;SDS011;52002;49.760;6.512;2024-02-15T13:27:35;1.30;;;1.00;;
65393;SDS011;52002;49.760;6.512;2024-02-15T13:30:05;3.00;;;1.10;;
65393;SDS011;52002;49.760;6.512;2024-02-15T13:32:35;5.20;;;1.40;;
65393;SDS011;52002;49.760;6.512;2024-02-15T13:35:02;2.90;;;1.00;;
65393;SDS011;52002;49.760;6.512;2024-02-15T13:37:32;2.10;;;1.00;;
65393;SDS011;52002;49.760;6.512;2024-02-15T13:39:58;3.00;;;1.00;;
65393;SDS011;52002;49.760;6.512;2024-02-15T13:42:23;3.90;;;1.30;;
65393;SDS011;52002;49.760;6.512;2024-02-15T13:44:49;3.50;;;1.20;;
65393;SDS011;52002;49.760;6.512;2024-02-15T13:47:15;1.40;;;1.00;;
65393;SDS011;52002;49.760;6.512;2024-02-15T13:49:41;4.80;;;1.30;;
65393;SDS011;52002;49.760;6.512;2024-02-15T13:52:08;2.50;;;1.10;;
65393;SDS011;52002;49.760;6.512;2024-02-15T13:54:36;2.10;;;1.10;;
65393;SDS011;52002;49.760;6.512;2024-02-15T13:57:01;4.00;;;1.30;;
65393;SDS011;52002;49.760;6.512;2024-02-15T13:59:28;4.10;;;1.30;;
65393;SDS011;52002;49.760;6.512;2024-02-15T14:01:56;3.60;;;1.20;;
65393;SDS011;52002;49.760;6.512;2024-02-15T14:04:22;5.10;;;1.30;;
65393;SDS011;52002;49.760;6.512;2024-02-15T14:06:47;6.70;;;1.40;;
65393;SDS011;52002;49.760;6.512;2024-02-15T14:09:13;3.20;;;1.40;;
65393;SDS011;52002;49.760;6.512;2024-02-15T14:11:39;10.20;;;1.40;;
65393;SDS011;52002;49.760;6.512;2024-02-15T14:14:07;6.60;;;1.40;;
65393;SDS011;52002;49.760;6.512;2024-02-15T14:16:33;2.90;;;1.20;;
65393;SDS011;52002;49.760;6.512;2024-02-15T14:18:58;3.80;;;1.10;;
65393;SDS011;52002;49.760;6.512;2024-02-15T14:21:24;3.70;;;1.40;;
65393;SDS011;52002;49.760;6.512;2024-02-15T14:23:50;5.30;;;1.30;;
65393;SDS011;52002;49.760;6.512;2024-02-15T14:26:16;9.40;;;1.60;;
65393;SDS011;52002;49.760;6.512;2024-02-15T14:28:42;3.30;;;1.20;;
65393;SDS011;52002;49.760;6.512;2024-02-15T14:31:12;3.10;;;1.30;;
65393;SDS011;52002;49.760;6.512;2024-02-15T14:34:01;4.30;;;1.40;;
65393;SDS011;52002;49.760;6.512;2024-02-15T14:36:26;4.20;;;1.90;;
65393;SDS011;52002;49.760;6.512;2024-02-15T14:38:52;4.30;;;2.00;;
65393;SDS011;52002;49.760;6.512;2024-02-15T14:41:19;2.90;;;1.30;;
65393;SDS011;52002;49.760;6.512;2024-02-15T14:43:46;2.50;;;1.00;;
65393;SDS011;52002;49.760;6.512;2024-02-15T14:46:11;5.80;;;1.10;;
65393;SDS011;52002;49.760;6.512;2024-02-15T14:48:37;7.00;;;1.20;;
65393;SDS011;52002;49.760;6.512;2024-02-15T14:51:05;8.90;;;1.60;;
65393;SDS011;52002;49.760;6.512;2024-02-15T14:53:30;3.50;;;1.10;;
65393;SDS011;52002;49.760;6.512;2024-02-15T14:55:56;4.40;;;1.40;;
65393;SDS011;52002;49.760;6.512;2024-02-15T14:58:22;10.90;;;1.60;;
65393;SDS011;52002;49.760;6.512;2024-02-15T15:00:47;4.40;;;1.30;;
65393;SDS011;52002;49.760;6.512;2024-02-15T15:03:14;4.60;;;1.70;;
65393;SDS011;52002;49.760;6.512;2024-02-15T15:05:41;4.70;;;1.50;;
65393;SDS011;52002;49.760;6.512;2024-02-15T15:08:25;3.80;;;1.40;;
65393;SDS011;52002;49.760;6.512;2024-02-15T15:11:09;2.80;;;1.60;;
65393;SDS011;52002;49.760;6.512;2024-02-15T15:13:54;4.40;;;1.80;;
65393;SDS011;52002;49.760;6.512;2024-02-15T15:16:19;6.40;;;2.10;;